Terminal Aerodrome Forecast
Issued by NWS

Home | Current Version | Previous Version | Text Only | Print | Product List | Glossary On
Versions: 1 2 3 4 5 6 7 8 9 10 11 12 13 14 15 16 17 18 19 20 21 22 23 24 25 26
000
FTUS43 KLOT 261853 AAA
TAFORD
TAF AMD
KORD 261853Z 2619/2724 22011G17KT P6SM BKN070
     FM262100 24010KT P6SM VCSH BKN060
     FM262300 29009KT P6SM VCSH SCT035 BKN060 BKN120
     FM270200 32010KT P6SM SCT020 BKN080
     FM271400 33011KT P6SM FEW030 SCT250=

USA.gov is the U.S. government's official web portal to all federal, state and local government web resources and services.